sensor_id;sensor_type;location;lat;lon;timestamp;temperature;humidity
24152;DHT22;12311;50.866;4.332;2023-03-01T06:17:18;-0.50;99.90
24152;DHT22;12311;50.866;4.332;2023-03-01T06:19:43;-0.60;99.90
24152;DHT22;12311;50.866;4.332;2023-03-01T06:22:09;-0.60;99.90
24152;DHT22;12311;50.866;4.332;2023-03-01T06:24:35;-0.60;99.90
24152;DHT22;12311;50.866;4.332;2023-03-01T06:27:00;-0.50;99.90
24152;DHT22;12311;50.866;4.332;2023-03-01T06:29:27;-0.60;99.90
24152;DHT22;12311;50.866;4.332;2023-03-01T06:31:53;-0.60;99.90
24152;DHT22;12311;50.866;4.332;2023-03-01T06:34:18;-0.60;99.90
24152;DHT22;12311;50.866;4.332;2023-03-01T06:36:46;-0.60;99.90
24152;DHT22;12311;50.866;4.332;2023-03-01T06:39:11;-0.60;99.90
24152;DHT22;12311;50.866;4.332;2023-03-01T06:41:37;-0.60;99.90
24152;DHT22;12311;50.866;4.332;2023-03-01T06:44:03;-0.60;99.90
24152;DHT22;12311;50.866;4.332;2023-03-01T06:46:28;-0.50;99.90
24152;DHT22;12311;50.866;4.332;2023-03-01T06:48:54;-0.40;99.90
24152;DHT22;12311;50.866;4.332;2023-03-01T06:51:20;-0.40;99.90
24152;DHT22;12311;50.866;4.332;2023-03-01T06:53:46;-0.50;99.90
24152;DHT22;12311;50.866;4.332;2023-03-01T06:56:12;-0.40;99.90
24152;DHT22;12311;50.866;4.332;2023-03-01T06:58:37;-0.40;99.90
24152;DHT22;12311;50.866;4.332;2023-03-01T07:01:09;-0.40;99.90
24152;DHT22;12311;50.866;4.332;2023-03-01T07:03:35;-0.30;99.90
24152;DHT22;12311;50.866;4.332;2023-03-01T07:06:01;-0.20;99.90
24152;DHT22;12311;50.866;4.332;2023-03-01T07:08:26;-0.20;99.90
24152;DHT22;12311;50.866;4.332;2023-03-01T07:10:59;-0.20;99.90
24152;DHT22;12311;50.866;4.332;2023-03-01T07:13:24;-0.10;99.90
24152;DHT22;12311;50.866;4.332;2023-03-01T07:15:50;-0.20;99.90
24152;DHT22;12311;50.866;4.332;2023-03-01T07:18:16;-0.20;99.90
24152;DHT22;12311;50.866;4.332;2023-03-01T07:20:42;-0.10;99.90
24152;DHT22;12311;50.866;4.332;2023-03-01T07:23:07;-0.10;99.90
24152;DHT22;12311;50.866;4.332;2023-03-01T07:25:33;-0.10;99.90
24152;DHT22;12311;50.866;4.332;2023-03-01T07:27:59;-0.20;99.90
24152;DHT22;12311;50.866;4.332;2023-03-01T07:30:25;-0.10;99.90
24152;DHT22;12311;50.866;4.332;2023-03-01T07:32:53;0.10;99.90
24152;DHT22;12311;50.866;4.332;2023-03-01T07:35:19;0.10;99.90
24152;DHT22;12311;50.866;4.332;2023-03-01T07:37:44;0.20;99.90
24152;DHT22;12311;50.866;4.332;2023-03-01T07:40:11;0.30;99.90
24152;DHT22;12311;50.866;4.332;2023-03-01T07:42:37;0.40;99.90
24152;DHT22;12311;50.866;4.332;2023-03-01T07:45:04;0.40;99.90
24152;DHT22;12311;50.866;4.332;2023-03-01T07:47:30;0.40;99.90
24152;DHT22;12311;50.866;4.332;2023-03-01T07:49:56;0.40;99.90
24152;DHT22;12311;50.866;4.332;2023-03-01T07:52:22;0.50;99.90
24152;DHT22;12311;50.866;4.332;2023-03-01T07:54:47;0.60;99.90
24152;DHT22;12311;50.866;4.332;2023-03-01T07:57:13;0.70;99.90
24152;DHT22;12311;50.866;4.332;2023-03-01T07:59:38;0.70;99.90
24152;DHT22;12311;50.866;4.332;2023-03-01T08:02:04;0.70;99.90
24152;DHT22;12311;50.866;4.332;2023-03-01T08:04:31;0.80;99.90
24152;DHT22;12311;50.866;4.332;2023-03-01T08:06:56;0.80;99.90
24152;DHT22;12311;50.866;4.332;2023-03-01T08:09:22;1.10;99.90
24152;DHT22;12311;50.866;4.332;2023-03-01T08:11:48;1.10;99.90
24152;DHT22;12311;50.866;4.332;2023-03-01T08:14:13;1.10;99.90
24152;DHT22;12311;50.866;4.332;2023-03-01T08:16:39;1.10;99.90
24152;DHT22;12311;50.866;4.332;2023-03-01T08:19:10;1.10;99.90
24152;DHT22;12311;50.866;4.332;2023-03-01T08:21:37;1.20;99.90
24152;DHT22;12311;50.866;4.332;2023-03-01T08:24:04;1.20;99.90
24152;DHT22;12311;50.866;4.332;2023-03-01T08:26:32;1.20;99.90
24152;DHT22;12311;50.866;4.332;2023-03-01T08:28:59;1.20;99.90
24152;DHT22;12311;50.866;4.332;2023-03-01T08:31:27;1.40;99.90
24152;DHT22;12311;50.866;4.332;2023-03-01T08:33:57;1.50;99.90
24152;DHT22;12311;50.866;4.332;2023-03-01T08:36:31;1.50;99.90
24152;DHT22;12311;50.866;4.332;2023-03-01T08:38:57;1.60;99.90
24152;DHT22;12311;50.866;4.332;2023-03-01T08:41:23;1.80;99.90
24152;DHT22;12311;50.866;4.332;2023-03-01T08:43:49;1.80;99.90
24152;DHT22;12311;50.866;4.332;2023-03-01T08:46:15;1.80;99.90
24152;DHT22;12311;50.866;4.332;2023-03-01T08:48:41;1.90;99.90
24152;DHT22;12311;50.866;4.332;2023-03-01T08:51:16;2.00;99.90
24152;DHT22;12311;50.866;4.332;2023-03-01T08:53:42;2.10;99.90
24152;DHT22;12311;50.866;4.332;2023-03-01T08:56:09;2.20;99.90
24152;DHT22;12311;50.866;4.332;2023-03-01T08:58:35;2.20;99.90
24152;DHT22;12311;50.866;4.332;2023-03-01T09:01:07;2.30;99.90
24152;DHT22;12311;50.866;4.332;2023-03-01T09:03:32;2.40;99.90
24152;DHT22;12311;50.866;4.332;2023-03-01T09:06:02;2.50;99.90
24152;DHT22;12311;50.866;4.332;2023-03-01T09:08:28;2.50;99.90
24152;DHT22;12311;50.866;4.332;2023-03-01T09:10:54;2.60;99.90
24152;DHT22;12311;50.866;4.332;2023-03-01T09:13:20;2.70;99.90
24152;DHT22;12311;50.866;4.332;2023-03-01T09:15:46;2.80;99.90
24152;DHT22;12311;50.866;4.332;2023-03-01T09:18:11;2.90;99.90
24152;DHT22;12311;50.866;4.332;2023-03-01T09:20:37;2.90;99.90
24152;DHT22;12311;50.866;4.332;2023-03-01T09:23:03;3.00;99.90
24152;DHT22;12311;50.866;4.332;2023-03-01T09:25:28;3.10;99.90
24152;DHT22;12311;50.866;4.332;2023-03-01T09:27:54;3.20;99.90
24152;DHT22;12311;50.866;4.332;2023-03-01T09:30:21;3.30;99.90
24152;DHT22;12311;50.866;4.332;2023-03-01T09:32:47;3.30;99.90
24152;DHT22;12311;50.866;4.332;2023-03-01T09:35:13;3.30;99.90
24152;DHT22;12311;50.866;4.332;2023-03-01T09:37:39;3.50;99.90
24152;DHT22;12311;50.866;4.332;2023-03-01T09:40:12;3.60;99.90
24152;DHT22;12311;50.866;4.332;2023-03-01T09:42:48;3.80;99.90
24152;DHT22;12311;50.866;4.332;2023-03-01T09:47:57;3.90;99.90
24152;DHT22;12311;50.866;4.332;2023-03-01T09:50:23;3.90;99.90
24152;DHT22;12311;50.866;4.332;2023-03-01T09:53:01;4.10;99.90
24152;DHT22;12311;50.866;4.332;2023-03-01T09:55:33;4.30;99.90
24152;DHT22;12311;50.866;4.332;2023-03-01T10:00:51;4.70;99.90
24152;DHT22;12311;50.866;4.332;2023-03-01T10:03:34;4.60;99.90
24152;DHT22;12311;50.866;4.332;2023-03-01T10:06:06;4.70;99.90
24152;DHT22;12311;50.866;4.332;2023-03-01T10:11:31;5.10;99.90
24152;DHT22;12311;50.866;4.332;2023-03-01T10:14:12;5.10;99.90
24152;DHT22;12311;50.866;4.332;2023-03-01T10:16:50;5.30;99.90
24152;DHT22;12311;50.866;4.332;2023-03-01T10:19:27;5.30;99.90
24152;DHT22;12311;50.866;4.332;2023-03-01T10:21:54;5.40;99.90
24152;DHT22;12311;50.866;4.332;2023-03-01T10:24:23;5.40;99.90
24152;DHT22;12311;50.866;4.332;2023-03-01T10:27:01;5.50;99.90
24152;DHT22;12311;50.866;4.332;2023-03-01T10:30:05;5.60;99.90
24152;DHT22;12311;50.866;4.332;2023-03-01T10:32:34;5.50;99.90
24152;DHT22;12311;50.866;4.332;2023-03-01T10:35:00;5.70;99.90
24152;DHT22;12311;50.866;4.332;2023-03-01T10:37:27;5.80;99.90
24152;DHT22;12311;50.866;4.332;2023-03-01T10:40:03;6.00;99.90
24152;DHT22;12311;50.866;4.332;2023-03-01T10:42:39;6.30;99.90
24152;DHT22;12311;50.866;4.332;2023-03-01T10:45:39;6.40;99.90
24152;DHT22;12311;50.866;4.332;2023-03-01T10:50:44;6.80;99.90
24152;DHT22;12311;50.866;4.332;2023-03-01T10:56:02;7.00;99.90
24152;DHT22;12311;50.866;4.332;2023-03-01T10:58:29;7.00;99.90
24152;DHT22;12311;50.866;4.332;2023-03-01T11:00:57;7.40;99.90
24152;DHT22;12311;50.866;4.332;2023-03-01T11:03:24;7.40;99.90
24152;DHT22;12311;50.866;4.332;2023-03-01T11:05:59;7.30;99.90
24152;DHT22;12311;50.866;4.332;2023-03-01T11:08:43;7.60;99.90
24152;DHT22;12311;50.866;4.332;2023-03-01T11:13:52;7.70;99.90
24152;DHT22;12311;50.866;4.332;2023-03-01T11:16:45;7.90;99.90
24152;DHT22;12311;50.866;4.332;2023-03-01T11:24:12;8.10;99.90
24152;DHT22;12311;50.866;4.332;2023-03-01T11:26:42;8.60;99.90
24152;DHT22;12311;50.866;4.332;2023-03-01T11:29:30;8.80;99.90
24152;DHT22;12311;50.866;4.332;2023-03-01T11:32:01;9.00;99.90
24152;DHT22;12311;50.866;4.332;2023-03-01T11:34:54;9.00;99.90
24152;DHT22;12311;50.866;4.332;2023-03-01T11:40:41;8.90;99.90
24152;DHT22;12311;50.866;4.332;2023-03-01T11:43:59;8.70;99.90
24152;DHT22;12311;50.866;4.332;2023-03-01T11:51:37;8.60;99.90
24152;DHT22;12311;50.866;4.332;2023-03-01T11:54:21;8.80;99.90
24152;DHT22;12311;50.866;4.332;2023-03-01T11:56:50;9.20;99.90
24152;DHT22;12311;50.866;4.332;2023-03-01T11:59:46;9.40;99.90
24152;DHT22;12311;50.866;4.332;2023-03-01T12:02:37;9.60;99.90
24152;DHT22;12311;50.866;4.332;2023-03-01T12:08:35;10.10;99.90
24152;DHT22;12311;50.866;4.332;2023-03-01T12:19:39;10.50;99.40
24152;DHT22;12311;50.866;4.332;2023-03-01T12:22:35;10.60;99.20
24152;DHT22;12311;50.866;4.332;2023-03-01T12:25:07;10.60;98.50
24152;DHT22;12311;50.866;4.332;2023-03-01T12:27:51;10.70;98.10
24152;DHT22;12311;50.866;4.332;2023-03-01T12:36:47;10.80;98.70
24152;DHT22;12311;50.866;4.332;2023-03-01T12:39:30;11.40;97.10
24152;DHT22;12311;50.866;4.332;2023-03-01T12:42:03;11.40;95.90
24152;DHT22;12311;50.866;4.332;2023-03-01T12:50:02;11.10;94.50
24152;DHT22;12311;50.866;4.332;2023-03-01T12:52:51;11.20;93.90
24152;DHT22;12311;50.866;4.332;2023-03-01T12:55:33;11.20;93.80
24152;DHT22;12311;50.866;4.332;2023-03-01T13:11:48;11.90;92.00
24152;DHT22;12311;50.866;4.332;2023-03-01T13:16:45;12.20;89.70
24152;DHT22;12311;50.866;4.332;2023-03-01T13:19:22;12.20;90.00
24152;DHT22;12311;50.866;4.332;2023-03-01T13:21:50;12.20;89.80
24152;DHT22;12311;50.866;4.332;2023-03-01T13:32:26;11.60;90.40
24152;DHT22;12311;50.866;4.332;2023-03-01T13:37:44;11.40;90.10
24152;DHT22;12311;50.866;4.332;2023-03-01T13:42:55;12.00;89.60
24152;DHT22;12311;50.866;4.332;2023-03-01T13:47:58;12.60;85.90
24152;DHT22;12311;50.866;4.332;2023-03-01T13:50:38;12.30;84.40
24152;DHT22;12311;50.866;4.332;2023-03-01T13:53:14;12.40;84.60
24152;DHT22;12311;50.866;4.332;2023-03-01T13:58:52;12.20;84.10
24152;DHT22;12311;50.866;4.332;2023-03-01T14:01:38;12.10;84.50
24152;DHT22;12311;50.866;4.332;2023-03-01T14:06:46;12.20;82.40
24152;DHT22;12311;50.866;4.332;2023-03-01T14:09:22;12.30;82.20
24152;DHT22;12311;50.866;4.332;2023-03-01T14:17:40;12.00;84.60
24152;DHT22;12311;50.866;4.332;2023-03-01T14:20:18;12.20;84.90
24152;DHT22;12311;50.866;4.332;2023-03-01T14:22:45;12.40;85.60
24152;DHT22;12311;50.866;4.332;2023-03-01T14:25:27;12.70;83.70
24152;DHT22;12311;50.866;4.332;2023-03-01T14:27:57;12.80;82.10
24152;DHT22;12311;50.866;4.332;2023-03-01T14:30:26;12.70;82.90
24152;DHT22;12311;50.866;4.332;2023-03-01T14:32:55;12.60;82.60
24152;DHT22;12311;50.866;4.332;2023-03-01T14:35:27;12.70;82.10
24152;DHT22;12311;50.866;4.332;2023-03-01T14:37:54;12.80;81.90
24152;DHT22;12311;50.866;4.332;2023-03-01T14:40:38;12.80;82.00
24152;DHT22;12311;50.866;4.332;2023-03-01T14:43:11;12.40;82.20
24152;DHT22;12311;50.866;4.332;2023-03-01T14:45:37;12.40;82.50
24152;DHT22;12311;50.866;4.332;2023-03-01T14:48:05;12.40;82.00
24152;DHT22;12311;50.866;4.332;2023-03-01T14:50:33;12.30;82.50
24152;DHT22;12311;50.866;4.332;2023-03-01T14:53:02;12.10;83.20
24152;DHT22;12311;50.866;4.332;2023-03-01T14:55:35;12.00;83.00
24152;DHT22;12311;50.866;4.332;2023-03-01T14:58:09;11.90;83.80
24152;DHT22;12311;50.866;4.332;2023-03-01T15:00:35;11.70;84.10
24152;DHT22;12311;50.866;4.332;2023-03-01T15:05:56;11.80;82.50
24152;DHT22;12311;50.866;4.332;2023-03-01T15:08:24;11.70;84.10
24152;DHT22;12311;50.866;4.332;2023-03-01T15:11:22;11.90;83.40
24152;DHT22;12311;50.866;4.332;2023-03-01T15:13:51;11.90;82.60
24152;DHT22;12311;50.866;4.332;2023-03-01T15:16:19;11.70;82.70
24152;DHT22;12311;50.866;4.332;2023-03-01T15:18:49;11.60;82.80
24152;DHT22;12311;50.866;4.332;2023-03-01T15:21:19;12.10;82.90
24152;DHT22;12311;50.866;4.332;2023-03-01T15:23:51;12.40;81.10
24152;DHT22;12311;50.866;4.332;2023-03-01T15:26:40;12.50;81.20
24152;DHT22;12311;50.866;4.332;2023-03-01T15:29:15;12.80;81.20
24152;DHT22;12311;50.866;4.332;2023-03-01T15:31:42;12.90;79.60
24152;DHT22;12311;50.866;4.332;2023-03-01T15:34:28;12.80;79.30
24152;DHT22;12311;50.866;4.332;2023-03-01T15:36:56;12.80;79.40
24152;DHT22;12311;50.866;4.332;2023-03-01T15:39:32;12.60;79.40
24152;DHT22;12311;50.866;4.332;2023-03-01T15:42:13;12.40;79.40
24152;DHT22;12311;50.866;4.332;2023-03-01T15:44:41;12.50;78.30
24152;DHT22;12311;50.866;4.332;2023-03-01T15:47:23;12.10;79.70
24152;DHT22;12311;50.866;4.332;2023-03-01T15:49:52;12.20;79.90
24152;DHT22;12311;50.866;4.332;2023-03-01T15:52:42;11.70;80.70
24152;DHT22;12311;50.866;4.332;2023-03-01T15:57:41;11.50;81.30
24152;DHT22;12311;50.866;4.332;2023-03-01T16:00:10;11.50;80.90
24152;DHT22;12311;50.866;4.332;2023-03-01T16:02:40;11.60;81.30
24152;DHT22;12311;50.866;4.332;2023-03-01T16:05:20;11.70;81.40
24152;DHT22;12311;50.866;4.332;2023-03-01T16:07:47;11.70;80.40
24152;DHT22;12311;50.866;4.332;2023-03-01T16:10:12;11.40;82.20
24152;DHT22;12311;50.866;4.332;2023-03-01T16:12:38;11.40;82.10
24152;DHT22;12311;50.866;4.332;2023-03-01T16:15:09;11.20;82.80
24152;DHT22;12311;50.866;4.332;2023-03-01T16:17:39;11.10;83.10
24152;DHT22;12311;50.866;4.332;2023-03-01T16:20:04;10.90;83.20
24152;DHT22;12311;50.866;4.332;2023-03-01T16:22:30;10.40;84.70
24152;DHT22;12311;50.866;4.332;2023-03-01T16:24:56;10.20;85.80
24152;DHT22;12311;50.866;4.332;2023-03-01T16:27:22;10.20;85.90
24152;DHT22;12311;50.866;4.332;2023-03-01T16:29:47;10.10;86.40
24152;DHT22;12311;50.866;4.332;2023-03-01T16:32:13;9.90;87.00
24152;DHT22;12311;50.866;4.332;2023-03-01T16:34:39;9.80;88.50
24152;DHT22;12311;50.866;4.332;2023-03-01T16:37:04;9.40;89.50
24152;DHT22;12311;50.866;4.332;2023-03-01T16:39:30;8.80;90.70
24152;DHT22;12311;50.866;4.332;2023-03-01T16:41:56;8.60;91.70
24152;DHT22;12311;50.866;4.332;2023-03-01T16:44:21;8.40;92.10
24152;DHT22;12311;50.866;4.332;2023-03-01T16:46:47;8.20;92.60
24152;DHT22;12311;50.866;4.332;2023-03-01T16:49:13;8.20;93.40
24152;DHT22;12311;50.866;4.332;2023-03-01T16:51:39;8.10;93.40
24152;DHT22;12311;50.866;4.332;2023-03-01T16:54:04;8.00;93.70
24152;DHT22;12311;50.866;4.332;2023-03-01T16:56:30;7.80;94.30
24152;DHT22;12311;50.866;4.332;2023-03-01T16:58:58;7.80;94.60
24152;DHT22;12311;50.866;4.332;2023-03-01T17:01:23;7.70;95.10
24152;DHT22;12311;50.866;4.332;2023-03-01T17:03:51;7.60;95.60
24152;DHT22;12311;50.866;4.332;2023-03-01T17:06:20;7.50;96.00
24152;DHT22;12311;50.866;4.332;2023-03-01T17:08:47;7.40;96.50
24152;DHT22;12311;50.866;4.332;2023-03-01T17:11:15;7.30;97.10
24152;DHT22;12311;50.866;4.332;2023-03-01T17:13:42;7.20;97.40
24152;DHT22;12311;50.866;4.332;2023-03-01T17:16:10;7.00;98.00
24152;DHT22;12311;50.866;4.332;2023-03-01T17:18:36;6.90;98.60
24152;DHT22;12311;50.866;4.332;2023-03-01T17:21:04;6.90;99.20
24152;DHT22;12311;50.866;4.332;2023-03-01T17:23:30;6.80;99.10
24152;DHT22;12311;50.866;4.332;2023-03-01T17:25:57;6.80;99.30
24152;DHT22;12311;50.866;4.332;2023-03-01T17:28:25;6.70;99.60
24152;DHT22;12311;50.866;4.332;2023-03-01T17:30:51;6.70;99.90
24152;DHT22;12311;50.866;4.332;2023-03-01T17:33:18;6.60;99.90
24152;DHT22;12311;50.866;4.332;2023-03-01T17:35:44;6.50;99.90
24152;DHT22;12311;50.866;4.332;2023-03-01T17:38:15;6.40;99.90
24152;DHT22;12311;50.866;4.332;2023-03-01T17:40:42;6.30;99.90
24152;DHT22;12311;50.866;4.332;2023-03-01T17:43:11;6.30;99.90
24152;DHT22;12311;50.866;4.332;2023-03-01T17:45:37;6.30;99.90
24152;DHT22;12311;50.866;4.332;2023-03-01T17:48:04;6.20;99.90
24152;DHT22;12311;50.866;4.332;2023-03-01T17:50:30;6.20;99.90
24152;DHT22;12311;50.866;4.332;2023-03-01T17:52:56;6.10;99.90
24152;DHT22;12311;50.866;4.332;2023-03-01T17:55:23;6.10;99.90
24152;DHT22;12311;50.866;4.332;2023-03-01T17:57:49;6.10;99.90
24152;DHT22;12311;50.866;4.332;2023-03-01T18:00:16;6.10;99.90
24152;DHT22;12311;50.866;4.332;2023-03-01T18:02:43;6.00;99.90
24152;DHT22;12311;50.866;4.332;2023-03-01T18:05:09;5.90;99.90
24152;DHT22;12311;50.866;4.332;2023-03-01T18:07:36;5.90;99.90
24152;DHT22;12311;50.866;4.332;2023-03-01T18:10:02;5.90;99.90
24152;DHT22;12311;50.866;4.332;2023-03-01T18:12:28;5.90;99.90
24152;DHT22;12311;50.866;4.332;2023-03-01T18:14:53;5.90;99.90
24152;DHT22;12311;50.866;4.332;2023-03-01T18:17:20;5.80;99.90
24152;DHT22;12311;50.866;4.332;2023-03-01T18:19:46;5.80;99.90
24152;DHT22;12311;50.866;4.332;2023-03-01T18:22:12;5.70;99.90
24152;DHT22;12311;50.866;4.332;2023-03-01T18:24:38;5.70;99.90
24152;DHT22;12311;50.866;4.332;2023-03-01T18:27:04;5.60;99.90
24152;DHT22;12311;50.866;4.332;2023-03-01T18:29:30;5.60;99.90
24152;DHT22;12311;50.866;4.332;2023-03-01T18:31:56;5.50;99.90
24152;DHT22;12311;50.866;4.332;2023-03-01T18:34:22;5.60;99.90
24152;DHT22;12311;50.866;4.332;2023-03-01T18:36:47;5.60;99.90
24152;DHT22;12311;50.866;4.332;2023-03-01T18:39:16;5.50;99.90
24152;DHT22;12311;50.866;4.332;2023-03-01T18:41:42;5.60;99.90
24152;DHT22;12311;50.866;4.332;2023-03-01T18:44:09;5.60;99.90
24152;DHT22;12311;50.866;4.332;2023-03-01T18:46:35;5.40;99.90
24152;DHT22;12311;50.866;4.332;2023-03-01T18:49:03;5.30;99.90
24152;DHT22;12311;50.866;4.332;2023-03-01T18:51:29;5.30;99.90
24152;DHT22;12311;50.866;4.332;2023-03-01T18:53:55;5.20;99.90
24152;DHT22;12311;50.866;4.332;2023-03-01T18:56:23;5.20;99.90
24152;DHT22;12311;50.866;4.332;2023-03-01T18:58:49;5.10;99.90
24152;DHT22;12311;50.866;4.332;2023-03-01T19:01:25;5.10;99.90
24152;DHT22;12311;50.866;4.332;2023-03-01T19:03:51;5.10;99.90
24152;DHT22;12311;50.866;4.332;2023-03-01T19:06:18;5.10;99.90
24152;DHT22;12311;50.866;4.332;2023-03-01T19:08:44;5.10;99.90
24152;DHT22;12311;50.866;4.332;2023-03-01T19:11:12;5.00;99.90
24152;DHT22;12311;50.866;4.332;2023-03-01T19:13:39;5.00;99.90
24152;DHT22;12311;50.866;4.332;2023-03-01T19:16:17;4.90;99.90
24152;DHT22;12311;50.866;4.332;2023-03-01T19:18:44;4.90;99.90
24152;DHT22;12311;50.866;4.332;2023-03-01T19:21:16;5.00;99.90
24152;DHT22;12311;50.866;4.332;2023-03-01T19:23:43;5.00;99.90
24152;DHT22;12311;50.866;4.332;2023-03-01T19:26:11;4.90;99.90
24152;DHT22;12311;50.866;4.332;2023-03-01T19:28:37;4.90;99.90
24152;DHT22;12311;50.866;4.332;2023-03-01T19:31:06;4.90;99.90
24152;DHT22;12311;50.866;4.332;2023-03-01T19:33:33;4.90;99.90
24152;DHT22;12311;50.866;4.332;2023-03-01T19:36:00;4.90;99.90
24152;DHT22;12311;50.866;4.332;2023-03-01T19:38:26;4.90;99.90
24152;DHT22;12311;50.866;4.332;2023-03-01T19:40:53;4.90;99.90
24152;DHT22;12311;50.866;4.332;2023-03-01T19:43:19;4.80;99.90
24152;DHT22;12311;50.866;4.332;2023-03-01T19:45:52;4.70;99.90
24152;DHT22;12311;50.866;4.332;2023-03-01T19:48:18;4.80;99.90
24152;DHT22;12311;50.866;4.332;2023-03-01T19:50:44;4.80;99.90
24152;DHT22;12311;50.866;4.332;2023-03-01T19:53:10;4.70;99.90
24152;DHT22;12311;50.866;4.332;2023-03-01T19:55:37;4.70;99.90
24152;DHT22;12311;50.866;4.332;2023-03-01T19:58:03;4.70;99.90
24152;DHT22;12311;50.866;4.332;2023-03-01T20:00:31;4.60;99.90
24152;DHT22;12311;50.866;4.332;2023-03-01T20:02:57;4.60;99.90
24152;DHT22;12311;50.866;4.332;2023-03-01T20:05:22;4.60;99.90
24152;DHT22;12311;50.866;4.332;2023-03-01T20:07:48;4.60;99.90
24152;DHT22;12311;50.866;4.332;2023-03-01T20:10:15;4.50;99.90
24152;DHT22;12311;50.866;4.332;2023-03-01T20:12:41;4.50;99.90
24152;DHT22;12311;50.866;4.332;2023-03-01T20:15:07;4.50;99.90
24152;DHT22;12311;50.866;4.332;2023-03-01T20:17:33;4.40;99.90
24152;DHT22;12311;50.866;4.332;2023-03-01T20:19:59;4.40;99.90
24152;DHT22;12311;50.866;4.332;2023-03-01T20:22:24;4.40;99.90
24152;DHT22;12311;50.866;4.332;2023-03-01T20:24:50;4.40;99.90
24152;DHT22;12311;50.866;4.332;2023-03-01T20:27:16;4.30;99.90
24152;DHT22;12311;50.866;4.332;2023-03-01T20:29:41;4.20;99.90
24152;DHT22;12311;50.866;4.332;2023-03-01T20:32:07;4.20;99.90
24152;DHT22;12311;50.866;4.332;2023-03-01T20:34:35;4.30;99.90
24152;DHT22;12311;50.866;4.332;2023-03-01T20:37:01;4.20;99.90
24152;DHT22;12311;50.866;4.332;2023-03-01T20:39:27;4.20;99.90
24152;DHT22;12311;50.866;4.332;2023-03-01T20:41:53;4.20;99.90
24152;DHT22;12311;50.866;4.332;2023-03-01T20:44:18;4.10;99.90
24152;DHT22;12311;50.866;4.332;2023-03-01T20:46:44;4.10;99.90
24152;DHT22;12311;50.866;4.332;2023-03-01T20:49:10;4.10;99.90
24152;DHT22;12311;50.866;4.332;2023-03-01T20:51:35;4.20;99.90
24152;DHT22;12311;50.866;4.332;2023-03-01T20:54:01;4.10;99.90
24152;DHT22;12311;50.866;4.332;2023-03-01T20:56:27;4.10;99.90
24152;DHT22;12311;50.866;4.332;2023-03-01T20:58:54;4.10;99.90
24152;DHT22;12311;50.866;4.332;2023-03-01T21:01:23;4.10;99.90
24152;DHT22;12311;50.866;4.332;2023-03-01T21:03:49;4.00;99.90
24152;DHT22;12311;50.866;4.332;2023-03-01T21:06:15;3.90;99.90
24152;DHT22;12311;50.866;4.332;2023-03-01T21:08:41;4.00;99.90
24152;DHT22;12311;50.866;4.332;2023-03-01T21:11:07;4.00;99.90
24152;DHT22;12311;50.866;4.332;2023-03-01T21:13:34;3.90;99.90
24152;DHT22;12311;50.866;4.332;2023-03-01T21:18:27;3.70;99.90
